Time;durP1;ratioP1;P1;durP2;ratioP2;P2;SDS_P1;SDS_P2;PMS_P1;PMS_P2;Temp;Humidity;BMP_temperature;BMP_pressure;BME280_temperature;BME280_humidity;BME280_pressure;Samples;Min_cycle;Max_cycle;Signal;HPM_P1;HPM_P2
2022/12/29 00:02:01;;;;;;;10.20;5.93;;;;;;;;;;5106245;28;20038;-45
2022/12/29 00:04:27;;;;;;;13.02;6.85;;;;;;;;;;5107084;28;20063;-45
2022/12/29 00:06:53;;;;;;;10.68;5.50;;;;;;;;;;5107306;28;20062;-45
2022/12/29 00:09:21;;;;;;;11.93;6.07;;;;;;;;;;5086385;28;20247;-45
2022/12/29 00:11:47;;;;;;;11.20;5.47;;;;;;;;;;5088840;28;20039;-47
2022/12/29 00:16:58;;;;;;;12.60;5.47;;;;;;;;;;5107193;28;20050;-45
2022/12/29 00:35:58;;;;;;;;;;;;;;;;;;5086199;28;20105;-47
2022/12/29 00:44:04;;;;;;;11.77;6.10;;;;;;;;;;5086397;28;20039;-46
2022/12/29 00:46:31;;;;;;;10.18;5.22;;;;;;;;;;5088085;28;20416;-48
2022/12/29 00:51:42;;;;;;;9.20;5.40;;;;;;;;;;5106826;28;20034;-45
2022/12/29 00:54:09;;;;;;;11.50;5.70;;;;;;;;;;5103651;28;20133;-49
2022/12/29 00:56:36;;;;;;;12.95;5.40;;;;;;;;;;5105954;28;20081;-44
2022/12/29 00:59:05;;;;;;;8.25;4.78;;;;;;;;;;5103690;28;20102;-45
2022/12/29 01:01:32;;;;;;;8.85;5.43;;;;;;;;;;5104184;28;20547;-47
2022/12/29 06:10:09;;;;;;;4.63;2.70;;;;;;;;;;5100178;28;20176;-48
2022/12/29 06:12:35;;;;;;;6.45;2.80;;;;;;;;;;5107192;28;20138;-48
2022/12/29 06:15:01;;;;;;;9.02;2.60;;;;;;;;;;5107324;28;20095;-45
2022/12/29 06:17:27;;;;;;;11.23;2.55;;;;;;;;;;5090593;28;20361;-45
2022/12/29 06:19:54;;;;;;;5.68;2.20;;;;;;;;;;5085378;28;20097;-45
2022/12/29 06:22:20;;;;;;;4.85;2.45;;;;;;;;;;5086239;28;20036;-48
2022/12/29 06:24:47;;;;;;;4.43;2.28;;;;;;;;;;5085774;28;20035;-47
2022/12/29 06:27:13;;;;;;;4.75;2.50;;;;;;;;;;5086204;28;20412;-45
2022/12/29 06:29:40;;;;;;;4.97;2.47;;;;;;;;;;5085639;28;20464;-45
2022/12/29 06:32:07;;;;;;;3.92;2.20;;;;;;;;;;5072232;28;20567;-48
2022/12/29 06:34:34;;;;;;;3.28;2.08;;;;;;;;;;5067730;28;20458;-45
2022/12/29 06:37:01;;;;;;;2.83;2.20;;;;;;;;;;5069159;28;20040;-45
2022/12/29 06:39:28;;;;;;;5.30;2.65;;;;;;;;;;5069379;28;20092;-47
2022/12/29 06:41:55;;;;;;;5.53;2.10;;;;;;;;;;5068962;28;20025;-46
2022/12/29 06:44:21;;;;;;;6.35;2.40;;;;;;;;;;5068899;28;20059;-46
2022/12/29 06:46:48;;;;;;;5.10;1.98;;;;;;;;;;5080961;28;20032;-46
2022/12/29 06:49:14;;;;;;;3.35;2.05;;;;;;;;;;5089388;28;20030;-45
2022/12/29 06:51:40;;;;;;;6.13;2.47;;;;;;;;;;5089262;28;20107;-46
2022/12/29 06:54:07;;;;;;;5.30;2.75;;;;;;;;;;5087078;28;20099;-47
2022/12/29 06:56:33;;;;;;;2.95;1.98;;;;;;;;;;5069104;28;20055;-45
2022/12/29 06:59:03;;;;;;;4.20;2.38;;;;;;;;;;5069056;28;20060;-47
2022/12/29 07:01:29;;;;;;;5.35;2.58;;;;;;;;;;5069246;28;20028;-46
2022/12/29 07:03:55;;;;;;;5.30;2.65;;;;;;;;;;5068584;28;20388;-48
2022/12/29 07:06:22;;;;;;;6.97;2.60;;;;;;;;;;5081633;28;20431;-45
2022/12/29 07:08:48;;;;;;;4.85;2.63;;;;;;;;;;5088557;28;20351;-44
2022/12/29 07:11:14;;;;;;;3.63;2.40;;;;;;;;;;5088908;28;20031;-45
2022/12/29 07:13:40;;;;;;;4.78;2.50;;;;;;;;;;5088569;28;20495;-45
2022/12/29 07:16:07;;;;;;;3.80;2.67;;;;;;;;;;5088163;28;20024;-46
2022/12/29 07:18:33;;;;;;;9.52;2.90;;;;;;;;;;5088966;28;20028;-46
2022/12/29 07:21:00;;;;;;;6.32;2.67;;;;;;;;;;5087692;28;20514;-48
2022/12/29 07:23:26;;;;;;;4.13;2.35;;;;;;;;;;5086815;28;20032;-45
2022/12/29 07:26:01;;;;;;;4.53;2.20;;;;;;;;;;5087837;28;20035;-46
2022/12/29 07:28:27;;;;;;;4.95;2.55;;;;;;;;;;5090351;28;20032;-46
2022/12/29 07:30:53;;;;;;;6.38;2.60;;;;;;;;;;5089263;28;20416;-46
2022/12/29 07:33:19;;;;;;;5.53;3.10;;;;;;;;;;5089249;28;20078;-46
2022/12/29 07:35:45;;;;;;;5.75;2.85;;;;;;;;;;5090103;28;20044;-46
2022/12/29 07:38:11;;;;;;;5.22;2.60;;;;;;;;;;5083544;28;20446;-47
2022/12/29 07:40:37;;;;;;;6.25;2.78;;;;;;;;;;5088946;28;20032;-44
2022/12/29 07:43:03;;;;;;;5.13;2.60;;;;;;;;;;5089851;28;20395;-46
2022/12/29 07:45:30;;;;;;;3.90;2.53;;;;;;;;;;5090142;28;20113;-48
2022/12/29 07:47:56;;;;;;;4.70;2.30;;;;;;;;;;5090151;28;20028;-47
2022/12/29 07:50:22;;;;;;;5.55;2.60;;;;;;;;;;5089375;28;20047;-47
2022/12/29 07:52:48;;;;;;;4.80;2.33;;;;;;;;;;5088826;28;20036;-44
2022/12/29 07:55:14;;;;;;;5.20;2.55;;;;;;;;;;5090216;28;20521;-48
2022/12/29 07:57:41;;;;;;;4.15;2.45;;;;;;;;;;5090009;28;20024;-47
2022/12/29 08:00:08;;;;;;;3.47;2.30;;;;;;;;;;5089605;28;20099;-44
2022/12/29 08:02:34;;;;;;;4.65;2.20;;;;;;;;;;5088517;28;20032;-46
2022/12/29 08:05:00;;;;;;;3.38;2.50;;;;;;;;;;5089688;28;20069;-44
2022/12/29 08:07:26;;;;;;;7.63;3.05;;;;;;;;;;5090149;28;20407;-48
2022/12/29 08:09:52;;;;;;;5.80;2.70;;;;;;;;;;5089533;28;20030;-48
2022/12/29 08:12:18;;;;;;;4.57;2.35;;;;;;;;;;5096524;28;20043;-49
2022/12/29 08:14:44;;;;;;;5.70;2.55;;;;;;;;;;5106416;28;20038;-48
2022/12/29 08:17:10;;;;;;;8.65;2.95;;;;;;;;;;5089751;28;20386;-49
2022/12/29 08:19:37;;;;;;;4.45;2.50;;;;;;;;;;5104552;28;20023;-47
2022/12/29 08:22:03;;;;;;;5.65;2.63;;;;;;;;;;5109670;28;20024;-45
2022/12/29 08:24:29;;;;;;;6.85;2.25;;;;;;;;;;5110377;28;20023;-46
2022/12/29 08:26:55;;;;;;;5.43;2.53;;;;;;;;;;5108483;28;20019;-46
2022/12/29 08:29:21;;;;;;;4.50;2.83;;;;;;;;;;5109707;28;20023;-48
2022/12/29 08:31:47;;;;;;;4.25;2.00;;;;;;;;;;5108669;28;20031;-47
2022/12/29 08:34:13;;;;;;;3.15;2.08;;;;;;;;;;5109654;28;20027;-44
2022/12/29 08:36:39;;;;;;;5.32;2.47;;;;;;;;;;5109209;28;20141;-47
2022/12/29 08:39:06;;;;;;;3.00;2.00;;;;;;;;;;5109387;28;20019;-47
2022/12/29 08:41:32;;;;;;;3.97;2.30;;;;;;;;;;5108751;28;20395;-45
2022/12/29 08:43:58;;;;;;;4.03;1.77;;;;;;;;;;5107740;28;20062;-48
2022/12/29 08:46:24;;;;;;;4.70;2.38;;;;;;;;;;5109335;28;20080;-47
2022/12/29 08:48:50;;;;;;;8.75;2.60;;;;;;;;;;5109335;28;20028;-46
2022/12/29 08:51:16;;;;;;;4.00;2.47;;;;;;;;;;5108311;28;20032;-46
2022/12/29 08:53:42;;;;;;;3.80;2.40;;;;;;;;;;5107791;28;20027;-45
2022/12/29 08:56:09;;;;;;;3.67;2.30;;;;;;;;;;5090980;28;20032;-44
2022/12/29 08:58:36;;;;;;;4.50;2.20;;;;;;;;;;5087292;28;20027;-45
2022/12/29 09:01:02;;;;;;;6.05;2.53;;;;;;;;;;5099869;28;20494;-46
2022/12/29 09:03:29;;;;;;;3.47;2.53;;;;;;;;;;5107755;28;20036;-48
2022/12/29 09:05:56;;;;;;;5.10;2.00;;;;;;;;;;5107167;28;20028;-48
2022/12/29 09:08:22;;;;;;;4.78;2.58;;;;;;;;;;5104306;28;20018;-45
2022/12/29 09:10:48;;;;;;;4.90;2.28;;;;;;;;;;5107340;28;20036;-45
2022/12/29 09:13:15;;;;;;;5.68;2.33;;;;;;;;;;5090814;28;20035;-47
2022/12/29 09:15:41;;;;;;;5.20;2.40;;;;;;;;;;5071185;28;20020;-46
2022/12/29 09:18:08;;;;;;;5.25;2.20;;;;;;;;;;5079764;28;20032;-47
2022/12/29 09:20:34;;;;;;;6.13;1.90;;;;;;;;;;5086381;28;20505;-47
2022/12/29 09:23:01;;;;;;;4.80;2.10;;;;;;;;;;5088163;28;20406;-46
2022/12/29 09:25:27;;;;;;;2.95;2.30;;;;;;;;;;5094562;28;20034;-46
2022/12/29 09:27:53;;;;;;;4.88;2.30;;;;;;;;;;5082111;28;20053;-50
2022/12/29 09:30:22;;;;;;;2.80;1.52;;;;;;;;;;5084293;28;20035;-48
2022/12/29 09:32:48;;;;;;;9.82;2.55;;;;;;;;;;5071254;28;20024;-49
2022/12/29 09:35:14;;;;;;;4.82;2.17;;;;;;;;;;5088303;28;20107;-47
2022/12/29 09:37:41;;;;;;;2.97;1.90;;;;;;;;;;5076236;28;20433;-44
2022/12/29 09:40:08;;;;;;;4.22;2.17;;;;;;;;;;5072622;28;20031;-46
2022/12/29 09:42:50;;;;;;;5.68;2.30;;;;;;;;;;5087500;28;20834;-48
2022/12/29 09:45:26;;;;;;;5.22;2.33;;;;;;;;;;5085238;28;20026;-48
2022/12/29 09:47:52;;;;;;;7.95;2.17;;;;;;;;;;5086332;28;20028;-48
2022/12/29 09:50:28;;;;;;;3.72;1.90;;;;;;;;;;5088796;28;20064;-47
2022/12/29 09:53:24;;;;;;;3.80;1.90;;;;;;;;;;5088448;28;20455;-48
2022/12/29 09:55:52;;;;;;;3.75;2.00;;;;;;;;;;4996208;28;20054;-49
2022/12/29 09:58:18;;;;;;;3.72;1.85;;;;;;;;;;5068696;28;20399;-46
2022/12/29 10:00:54;;;;;;;4.45;2.20;;;;;;;;;;5068577;28;20033;-47
2022/12/29 10:03:21;;;;;;;3.63;2.00;;;;;;;;;;5083451;28;20027;-49
2022/12/29 10:05:47;;;;;;;2.92;1.73;;;;;;;;;;5108972;28;20043;-49
2022/12/29 10:08:31;;;;;;;6.07;1.88;;;;;;;;;;5104615;28;20027;-47
2022/12/29 10:10:57;;;;;;;;;;;;;;;;;;5092326;28;20036;-49
2022/12/29 10:13:39;;;;;;;5.35;2.15;;;;;;;;;;5108644;28;19920;-47
2022/12/29 10:16:07;;;;;;;2.92;1.80;;;;;;;;;;5112930;28;20027;-48
2022/12/29 10:18:37;;;;;;;6.57;1.92;;;;;;;;;;5081368;28;20037;-47
2022/12/29 10:21:23;;;;;;;3.90;2.08;;;;;;;;;;5095351;28;20032;-49
2022/12/29 10:23:51;;;;;;;5.05;1.90;;;;;;;;;;5112637;28;20128;-46
2022/12/29 10:26:18;;;;;;;4.03;2.10;;;;;;;;;;5112654;28;20382;-46
2022/12/29 10:28:59;;;;;;;3.50;1.95;;;;;;;;;;5093568;28;20427;-46
2022/12/29 10:31:30;;;;;;;6.43;2.15;;;;;;;;;;5078810;28;20415;-47
2022/12/29 10:33:58;;;;;;;4.13;2.10;;;;;;;;;;5108424;28;20023;-46
2022/12/29 10:36:40;;;;;;;2.55;1.67;;;;;;;;;;5105426;28;20538;-49
2022/12/29 10:39:31;;;;;;;3.80;2.10;;;;;;;;;;5090853;28;20031;-46
2022/12/29 10:42:29;;;;;;;5.95;2.38;;;;;;;;;;5083732;28;20024;-49
2022/12/29 10:44:56;;;;;;;7.40;2.20;;;;;;;;;;5031168;28;20036;-47
2022/12/29 10:47:28;;;;;;;4.85;1.98;;;;;;;;;;5075411;28;20078;-46
2022/12/29 10:49:54;;;;;;;5.97;2.75;;;;;;;;;;5088986;28;20384;-46
2022/12/29 10:52:21;;;;;;;5.20;2.05;;;;;;;;;;5075109;28;20503;-46
2022/12/29 10:54:54;;;;;;;5.10;1.95;;;;;;;;;;5081580;28;20066;-46
2022/12/29 10:57:35;;;;;;;5.18;1.90;;;;;;;;;;5070219;28;20024;-46
2022/12/29 11:00:02;;;;;;;7.80;2.33;;;;;;;;;;5083891;28;20020;-49
2022/12/29 11:02:30;;;;;;;5.35;2.10;;;;;;;;;;5090814;28;20028;-46
2022/12/29 11:05:03;;;;;;;4.22;2.00;;;;;;;;;;5073695;28;20035;-48
2022/12/29 11:07:30;;;;;;;3.25;1.98;;;;;;;;;;5081582;28;20035;-48
2022/12/29 11:09:56;;;;;;;6.25;2.00;;;;;;;;;;5081451;28;20035;-46
2022/12/29 11:12:24;;;;;;;4.20;1.98;;;;;;;;;;5096099;28;20502;-47
2022/12/29 11:15:02;;;;;;;6.78;2.05;;;;;;;;;;5109373;28;20189;-47
2022/12/29 11:17:28;;;;;;;7.70;2.45;;;;;;;;;;5101166;28;20023;-49
2022/12/29 11:19:54;;;;;;;4.85;1.83;;;;;;;;;;5096035;28;20490;-47
2022/12/29 11:22:25;;;;;;;7.72;2.35;;;;;;;;;;5091455;28;20036;-47
2022/12/29 11:24:52;;;;;;;8.32;2.80;;;;;;;;;;5094679;28;20024;-47
2022/12/29 11:27:22;;;;;;;4.90;2.08;;;;;;;;;;5093486;28;20109;-48
2022/12/29 11:29:49;;;;;;;4.97;1.90;;;;;;;;;;5109622;28;20037;-49
2022/12/29 11:32:18;;;;;;;6.72;2.28;;;;;;;;;;5102195;28;20031;-49
2022/12/29 11:34:44;;;;;;;4.68;2.10;;;;;;;;;;5108996;28;20251;-48
2022/12/29 11:37:12;;;;;;;5.45;2.70;;;;;;;;;;5109743;28;20402;-49
2022/12/29 11:39:41;;;;;;;6.00;2.22;;;;;;;;;;5108428;28;20031;-47
2022/12/29 11:42:13;;;;;;;4.40;2.03;;;;;;;;;;5110788;28;20020;-47
2022/12/29 11:44:43;;;;;;;4.22;2.10;;;;;;;;;;5109486;27;20054;-45
2022/12/29 11:47:11;;;;;;;8.05;2.40;;;;;;;;;;5106781;28;20091;-46
2022/12/29 11:49:38;;;;;;;8.75;2.38;;;;;;;;;;5107160;28;20015;-48
2022/12/29 11:52:04;;;;;;;6.20;2.40;;;;;;;;;;5108236;28;20030;-48
2022/12/29 11:54:33;;;;;;;4.93;2.10;;;;;;;;;;5099538;28;20028;-49
2022/12/29 11:57:09;;;;;;;4.07;2.13;;;;;;;;;;5101943;28;20028;-50
2022/12/29 11:59:40;;;;;;;5.18;2.20;;;;;;;;;;5107012;28;20053;-48
2022/12/29 12:02:27;;;;;;;5.40;2.17;;;;;;;;;;5106660;28;20165;-46
2022/12/29 12:04:56;;;;;;;4.40;2.08;;;;;;;;;;5105259;28;20020;-46
2022/12/29 12:07:35;;;;;;;7.18;2.28;;;;;;;;;;5107206;28;20028;-45
2022/12/29 12:10:03;;;;;;;7.07;2.40;;;;;;;;;;5105837;28;20031;-48
2022/12/29 12:12:40;;;;;;;8.95;2.53;;;;;;;;;;5102707;28;20107;-49
2022/12/29 12:15:06;;;;;;;5.93;2.30;;;;;;;;;;5103326;28;20030;-46
2022/12/29 12:17:38;;;;;;;5.70;2.55;;;;;;;;;;5104551;28;20525;-48
2022/12/29 12:20:39;;;;;;;8.15;2.40;;;;;;;;;;5104736;28;20023;-47
2022/12/29 12:23:13;;;;;;;6.07;2.45;;;;;;;;;;5045676;28;20036;-46
2022/12/29 12:25:43;;;;;;;8.00;3.25;;;;;;;;;;5082730;28;20070;-47
2022/12/29 12:28:10;;;;;;;9.30;4.10;;;;;;;;;;5089299;28;20067;-46
2022/12/29 12:30:41;;;;;;;6.35;2.58;;;;;;;;;;5094543;28;20125;-47
2022/12/29 12:33:10;;;;;;;5.50;2.47;;;;;;;;;;5109018;28;20023;-49
2022/12/29 12:35:42;;;;;;;8.68;2.30;;;;;;;;;;5109504;28;20429;-50
2022/12/29 12:38:16;;;;;;;9.73;3.55;;;;;;;;;;5109668;28;20084;-47
2022/12/29 12:40:55;;;;;;;8.60;2.88;;;;;;;;;;5109488;28;20047;-46
2022/12/29 12:43:36;;;;;;;7.72;2.42;;;;;;;;;;5109206;28;20036;-46
2022/12/29 12:46:14;;;;;;;6.07;2.15;;;;;;;;;;5109289;28;20034;-46
2022/12/29 12:48:46;;;;;;;4.70;2.15;;;;;;;;;;5108942;28;20581;-50
2022/12/29 12:51:21;;;;;;;6.43;2.70;;;;;;;;;;5108953;28;20502;-47
2022/12/29 12:54:02;;;;;;;6.13;2.05;;;;;;;;;;5107833;28;20059;-47
2022/12/29 12:56:46;;;;;;;4.88;2.08;;;;;;;;;;5108674;28;20026;-50
2022/12/29 12:59:13;;;;;;;6.35;1.90;;;;;;;;;;5108862;28;20502;-47
2022/12/29 13:01:40;;;;;;;4.07;2.15;;;;;;;;;;5108923;28;20553;-48
2022/12/29 13:04:25;;;;;;;5.80;1.88;;;;;;;;;;5108939;28;20114;-49
2022/12/29 13:06:50;;;;;;;7.35;1.95;;;;;;;;;;5108919;28;20051;-47
2022/12/29 13:09:26;;;;;;;6.22;1.95;;;;;;;;;;5108545;28;20565;-46
2022/12/29 13:12:04;;;;;;;4.43;2.13;;;;;;;;;;5108150;28;20043;-47
2022/12/29 13:14:30;;;;;;;4.63;1.90;;;;;;;;;;5108979;28;20512;-46
2022/12/29 13:17:11;;;;;;;5.50;2.15;;;;;;;;;;5109055;28;20023;-46
2022/12/29 13:19:38;;;;;;;8.30;2.67;;;;;;;;;;5108793;28;20039;-47
2022/12/29 13:22:04;;;;;;;6.28;2.10;;;;;;;;;;5101611;28;20043;-48
2022/12/29 13:24:30;;;;;;;6.20;2.30;;;;;;;;;;5107723;28;20593;-48
2022/12/29 13:27:08;;;;;;;7.60;2.90;;;;;;;;;;5108840;28;20035;-47
2022/12/29 13:29:36;;;;;;;5.70;2.28;;;;;;;;;;5108346;28;20039;-46
2022/12/29 13:32:22;;;;;;;8.02;2.80;;;;;;;;;;5108689;28;20024;-48
2022/12/29 13:34:51;;;;;;;5.15;2.53;;;;;;;;;;5106756;28;20024;-47
2022/12/29 13:37:21;;;;;;;7.63;2.35;;;;;;;;;;5108497;28;20453;-47
2022/12/29 13:39:55;;;;;;;8.18;3.03;;;;;;;;;;5108314;28;20027;-46
2022/12/29 13:42:21;;;;;;;6.68;2.72;;;;;;;;;;5109108;28;20441;-49
2022/12/29 13:45:08;;;;;;;7.07;2.17;;;;;;;;;;5112773;28;20019;-47
2022/12/29 13:47:36;;;;;;;10.90;2.90;;;;;;;;;;5112052;28;20024;-48
2022/12/29 13:50:05;;;;;;;8.88;3.20;;;;;;;;;;5112444;28;20042;-46
2022/12/29 13:52:34;;;;;;;4.70;2.22;;;;;;;;;;5112590;28;20023;-47
2022/12/29 13:55:22;;;;;;;7.50;2.40;;;;;;;;;;5112420;28;20532;-46
2022/12/29 13:57:54;;;;;;;5.82;1.98;;;;;;;;;;5112170;28;20081;-46
2022/12/29 14:00:21;;;;;;;4.70;2.28;;;;;;;;;;5111808;28;20027;-45
2022/12/29 14:02:47;;;;;;;9.40;2.90;;;;;;;;;;5111767;28;20417;-47
2022/12/29 14:05:22;;;;;;;8.82;3.30;;;;;;;;;;5111801;28;20114;-49
2022/12/29 14:07:59;;;;;;;12.10;6.43;;;;;;;;;;5111695;28;20036;-46
2022/12/29 14:10:45;;;;;;;12.02;4.93;;;;;;;;;;5093259;28;20536;-46
2022/12/29 14:13:13;;;;;;;9.63;4.03;;;;;;;;;;5111490;28;20126;-46
2022/12/29 14:15:41;;;;;;;7.32;3.00;;;;;;;;;;5111227;28;20463;-46
2022/12/29 14:18:15;;;;;;;5.97;2.58;;;;;;;;;;5111713;28;20031;-47
2022/12/29 14:20:48;;;;;;;5.10;2.88;;;;;;;;;;5111589;28;20099;-46
2022/12/29 14:23:13;;;;;;;5.93;3.20;;;;;;;;;;5103825;28;20050;-48
2022/12/29 14:26:00;;;;;;;6.82;3.17;;;;;;;;;;5111503;28;20135;-47
2022/12/29 14:28:26;;;;;;;5.43;2.60;;;;;;;;;;5060044;28;20067;-46
2022/12/29 14:30:54;;;;;;;9.68;2.70;;;;;;;;;;5111282;28;20108;-49
2022/12/29 14:33:21;;;;;;;5.05;2.75;;;;;;;;;;5111634;28;20491;-45
2022/12/29 14:35:51;;;;;;;5.90;2.92;;;;;;;;;;5110212;28;20027;-47
2022/12/29 14:38:19;;;;;;;6.13;3.00;;;;;;;;;;5111058;28;20046;-48
2022/12/29 14:40:47;;;;;;;7.95;3.05;;;;;;;;;;5110160;28;20020;-46
2022/12/29 14:43:15;;;;;;;12.32;3.17;;;;;;;;;;5111046;28;20034;-48
2022/12/29 14:45:42;;;;;;;6.55;3.03;;;;;;;;;;5106331;28;20034;-47
2022/12/29 14:48:26;;;;;;;5.85;2.85;;;;;;;;;;5111098;28;20042;-46
2022/12/29 14:50:52;;;;;;;7.38;2.67;;;;;;;;;;5101763;28;20121;-46
2022/12/29 14:53:54;;;;;;;7.95;3.58;;;;;;;;;;5107344;28;20142;-46
2022/12/29 14:56:25;;;;;;;8.68;3.22;;;;;;;;;;5000305;28;20072;-49
2022/12/29 14:58:53;;;;;;;5.97;3.38;;;;;;;;;;5090644;28;20510;-46
2022/12/29 15:01:23;;;;;;;8.40;3.03;;;;;;;;;;5091001;28;20371;-45
2022/12/29 15:03:50;;;;;;;12.20;3.00;;;;;;;;;;5103834;28;20498;-46
2022/12/29 15:06:18;;;;;;;6.78;3.13;;;;;;;;;;5107724;28;20052;-48
2022/12/29 15:08:50;;;;;;;10.15;2.90;;;;;;;;;;5111063;28;20024;-49
2022/12/29 15:11:18;;;;;;;7.07;3.10;;;;;;;;;;5110505;28;20151;-48
2022/12/29 15:13:45;;;;;;;7.28;2.97;;;;;;;;;;5109322;28;20050;-49
2022/12/29 15:16:23;;;;;;;6.20;2.83;;;;;;;;;;5108215;28;20039;-49
2022/12/29 15:18:49;;;;;;;5.45;2.40;;;;;;;;;;5089995;28;20104;-48
2022/12/29 15:21:16;;;;;;;7.65;2.75;;;;;;;;;;5108626;28;20027;-49
2022/12/29 15:23:44;;;;;;;8.60;3.20;;;;;;;;;;5101178;28;20246;-50
2022/12/29 15:26:11;;;;;;;8.45;3.30;;;;;;;;;;5092455;28;20020;-50
2022/12/29 15:28:41;;;;;;;6.40;3.22;;;;;;;;;;5093648;28;20039;-45
2022/12/29 15:31:21;;;;;;;5.70;2.78;;;;;;;;;;5105758;28;20079;-50
2022/12/29 15:33:50;;;;;;;6.80;3.28;;;;;;;;;;5102056;28;20084;-47
2022/12/29 15:36:20;;;;;;;8.63;2.85;;;;;;;;;;5098722;28;20047;-48
2022/12/29 15:38:47;;;;;;;9.13;3.33;;;;;;;;;;5107652;28;20054;-47
2022/12/29 15:41:32;;;;;;;7.75;3.38;;;;;;;;;;5109636;28;20023;-49
2022/12/29 15:44:10;;;;;;;6.90;3.00;;;;;;;;;;5103178;28;20568;-46
2022/12/29 15:46:36;;;;;;;7.03;3.30;;;;;;;;;;5072312;28;20037;-47
2022/12/29 15:49:05;;;;;;;9.65;4.10;;;;;;;;;;5106563;28;20502;-48
2022/12/29 15:51:33;;;;;;;6.25;2.85;;;;;;;;;;5108612;27;20035;-47
2022/12/29 15:54:01;;;;;;;10.40;3.42;;;;;;;;;;5106933;28;20452;-47
2022/12/29 15:56:29;;;;;;;10.15;3.33;;;;;;;;;;5105045;28;20543;-46
2022/12/29 15:58:55;;;;;;;8.60;3.63;;;;;;;;;;5096901;28;20497;-48
2022/12/29 16:01:21;;;;;;;9.70;3.95;;;;;;;;;;5107312;28;20028;-46
2022/12/29 16:03:48;;;;;;;7.95;3.45;;;;;;;;;;5100626;28;20519;-48
2022/12/29 16:06:23;;;;;;;7.88;3.60;;;;;;;;;;5091779;28;20111;-49
2022/12/29 16:08:56;;;;;;;7.30;3.13;;;;;;;;;;5110368;28;20035;-46
2022/12/29 16:11:25;;;;;;;9.93;3.40;;;;;;;;;;5110493;28;20034;-48
2022/12/29 16:13:52;;;;;;;5.35;3.15;;;;;;;;;;5110194;28;20118;-47
2022/12/29 16:16:21;;;;;;;8.93;3.38;;;;;;;;;;5110219;28;20020;-46
2022/12/29 16:18:47;;;;;;;7.10;3.67;;;;;;;;;;5109163;28;20028;-47
2022/12/29 16:21:26;;;;;;;11.05;4.00;;;;;;;;;;5110258;28;20072;-49
2022/12/29 16:23:53;;;;;;;6.05;3.10;;;;;;;;;;5106406;28;20024;-48
2022/12/29 16:26:20;;;;;;;5.18;3.10;;;;;;;;;;5109046;28;20170;-48
2022/12/29 16:28:59;;;;;;;6.68;3.35;;;;;;;;;;5110261;28;20130;-47
2022/12/29 16:31:33;;;;;;;7.75;3.47;;;;;;;;;;5110337;28;20061;-45
2022/12/29 16:34:10;;;;;;;7.45;3.80;;;;;;;;;;5104937;28;20077;-49
2022/12/29 16:36:41;;;;;;;5.75;3.00;;;;;;;;;;5108569;28;20031;-46
2022/12/29 16:39:23;;;;;;;6.45;3.00;;;;;;;;;;5108860;28;20046;-46
2022/12/29 16:41:50;;;;;;;6.65;3.13;;;;;;;;;;5108505;28;20027;-45
2022/12/29 16:44:30;;;;;;;8.38;4.03;;;;;;;;;;5108780;28;20024;-47
2022/12/29 16:47:02;;;;;;;8.57;3.42;;;;;;;;;;5106923;28;20031;-47
2022/12/29 16:49:30;;;;;;;5.68;3.10;;;;;;;;;;5106801;28;20111;-46
2022/12/29 16:51:57;;;;;;;5.03;2.80;;;;;;;;;;5105534;28;20155;-48
2022/12/29 16:54:26;;;;;;;5.13;2.95;;;;;;;;;;5108240;28;20084;-48
2022/12/29 16:56:52;;;;;;;4.22;2.97;;;;;;;;;;5109164;28;20061;-49
2022/12/29 16:59:24;;;;;;;4.35;2.53;;;;;;;;;;5108573;28;20402;-45
2022/12/29 17:01:50;;;;;;;3.97;2.38;;;;;;;;;;5108458;28;20030;-46
2022/12/29 17:04:16;;;;;;;4.05;2.28;;;;;;;;;;5108195;28;20023;-47
2022/12/29 17:06:42;;;;;;;2.17;1.60;;;;;;;;;;5108100;28;20510;-46
2022/12/29 17:09:24;;;;;;;3.50;2.50;;;;;;;;;;5108457;28;20032;-46
2022/12/29 17:11:55;;;;;;;2.90;2.08;;;;;;;;;;5107434;28;20059;-49
2022/12/29 17:14:21;;;;;;;2.28;1.75;;;;;;;;;;5107025;28;20032;-46
2022/12/29 17:16:48;;;;;;;1.70;1.60;;;;;;;;;;5108246;28;20096;-48
2022/12/29 17:19:18;;;;;;;2.42;1.70;;;;;;;;;;5106262;28;20027;-46
2022/12/29 17:21:44;;;;;;;2.10;1.50;;;;;;;;;;5104296;28;20038;-46
2022/12/29 17:24:17;;;;;;;1.42;1.10;;;;;;;;;;5096527;28;20028;-48
2022/12/29 17:26:46;;;;;;;2.20;1.30;;;;;;;;;;5094163;28;20042;-46
2022/12/29 17:29:32;;;;;;;2.28;1.30;;;;;;;;;;5108215;28;20513;-46
2022/12/29 17:31:58;;;;;;;1.48;1.05;;;;;;;;;;5108079;28;20060;-46
2022/12/29 17:34:25;;;;;;;1.48;1.00;;;;;;;;;;5108941;28;20099;-48
2022/12/29 17:36:51;;;;;;;1.20;0.80;;;;;;;;;;5108478;28;20410;-46
2022/12/29 17:39:17;;;;;;;1.75;0.95;;;;;;;;;;5108076;28;20028;-45
2022/12/29 17:41:43;;;;;;;0.77;0.75;;;;;;;;;;5099434;28;22146;-45
2022/12/29 17:44:14;;;;;;;2.42;1.00;;;;;;;;;;5096915;28;20515;-47
2022/12/29 17:46:40;;;;;;;0.70;0.70;;;;;;;;;;5099295;28;20153;-45
2022/12/29 17:49:10;;;;;;;1.35;0.80;;;;;;;;;;5101671;28;20119;-46
2022/12/29 17:51:36;;;;;;;0.70;0.70;;;;;;;;;;5098976;28;20028;-46
2022/12/29 17:54:02;;;;;;;1.08;0.90;;;;;;;;;;5105395;28;20106;-46
2022/12/29 17:56:29;;;;;;;1.50;0.90;;;;;;;;;;5116471;28;20047;-45
2022/12/29 17:58:56;;;;;;;0.75;0.70;;;;;;;;;;5100239;28;20023;-45
2022/12/29 18:01:25;;;;;;;1.23;0.90;;;;;;;;;;5083374;28;20108;-46
2022/12/29 18:03:51;;;;;;;1.45;1.05;;;;;;;;;;5105244;28;20028;-47
2022/12/29 18:06:17;;;;;;;1.05;0.85;;;;;;;;;;5105072;28;20023;-46
2022/12/29 18:08:44;;;;;;;2.30;1.00;;;;;;;;;;5104521;28;20028;-45
2022/12/29 18:11:36;;;;;;;1.00;0.80;;;;;;;;;;5106008;28;20051;-46
2022/12/29 18:14:02;;;;;;;1.35;1.00;;;;;;;;;;5082362;28;20040;-48
2022/12/29 18:16:28;;;;;;;1.48;0.90;;;;;;;;;;5083754;28;20054;-48
2022/12/29 18:18:54;;;;;;;1.52;1.30;;;;;;;;;;5068046;28;20039;-46
2022/12/29 18:21:21;;;;;;;1.60;1.10;;;;;;;;;;5063433;28;20039;-45
2022/12/29 18:23:48;;;;;;;1.88;1.10;;;;;;;;;;5062009;28;20032;-47
2022/12/29 18:26:22;;;;;;;1.50;1.05;;;;;;;;;;5068031;28;20054;-46
2022/12/29 18:28:49;;;;;;;1.23;0.90;;;;;;;;;;5084291;28;20068;-46
2022/12/29 18:31:19;;;;;;;2.67;1.05;;;;;;;;;;5089556;28;20030;-47
2022/12/29 18:33:45;;;;;;;1.55;1.17;;;;;;;;;;5089546;28;20157;-48
2022/12/29 18:36:12;;;;;;;1.52;1.20;;;;;;;;;;5089440;28;20402;-49
2022/12/29 18:38:38;;;;;;;3.08;1.60;;;;;;;;;;5089741;28;20054;-46
2022/12/29 18:41:04;;;;;;;2.15;1.23;;;;;;;;;;5089927;28;20479;-45
2022/12/29 18:43:30;;;;;;;1.27;1.17;;;;;;;;;;5070186;28;20110;-49
2022/12/29 18:45:56;;;;;;;3.00;1.90;;;;;;;;;;5071394;28;20115;-46
2022/12/29 18:48:22;;;;;;;2.10;1.80;;;;;;;;;;5088402;28;20035;-45
2022/12/29 18:50:50;;;;;;;1.80;1.35;;;;;;;;;;5089078;28;20020;-44
2022/12/29 18:53:17;;;;;;;2.30;1.77;;;;;;;;;;5088977;28;20020;-45
2022/12/29 18:55:43;;;;;;;3.00;1.90;;;;;;;;;;5088674;28;20090;-46
2022/12/29 18:58:09;;;;;;;3.35;2.08;;;;;;;;;;5087381;28;20052;-46
2022/12/29 19:00:36;;;;;;;3.10;1.92;;;;;;;;;;5088789;28;20028;-46
2022/12/29 19:03:02;;;;;;;2.55;1.70;;;;;;;;;;5069908;28;20036;-45
2022/12/29 19:05:30;;;;;;;3.38;2.20;;;;;;;;;;5088109;28;20656;-47
2022/12/29 19:07:56;;;;;;;3.90;2.53;;;;;;;;;;5088969;28;20040;-46
2022/12/29 19:10:25;;;;;;;2.58;2.00;;;;;;;;;;5087792;28;20024;-48
2022/12/29 19:12:52;;;;;;;3.47;2.08;;;;;;;;;;5100368;28;20408;-46
2022/12/29 19:15:25;;;;;;;3.20;2.17;;;;;;;;;;5109253;28;20646;-46
2022/12/29 19:17:53;;;;;;;4.75;2.58;;;;;;;;;;5115711;27;20040;-46
2022/12/29 19:20:39;;;;;;;3.35;2.42;;;;;;;;;;5108267;28;20030;-49
2022/12/29 19:23:07;;;;;;;2.72;1.88;;;;;;;;;;5107838;28;20023;-49
2022/12/29 19:25:33;;;;;;;2.95;2.15;;;;;;;;;;5109182;28;20035;-46
2022/12/29 19:28:01;;;;;;;2.58;1.75;;;;;;;;;;5109097;28;20066;-45
2022/12/29 19:30:27;;;;;;;2.10;1.60;;;;;;;;;;5090230;28;20031;-47
2022/12/29 19:32:55;;;;;;;4.30;2.08;;;;;;;;;;5107702;28;20039;-46
2022/12/29 19:35:22;;;;;;;2.75;1.50;;;;;;;;;;5108752;28;20051;-45
2022/12/29 19:37:48;;;;;;;2.17;1.30;;;;;;;;;;5090225;28;20104;-45
2022/12/29 19:40:18;;;;;;;2.85;1.77;;;;;;;;;;5108644;28;20030;-45
2022/12/29 19:42:45;;;;;;;4.57;2.80;;;;;;;;;;5108485;28;20498;-47
2022/12/29 19:45:11;;;;;;;5.93;2.92;;;;;;;;;;5109080;28;20558;-45
2022/12/29 19:47:37;;;;;;;7.43;3.70;;;;;;;;;;5108580;28;20023;-45
2022/12/29 19:50:05;;;;;;;6.72;3.70;;;;;;;;;;5090425;28;20035;-44
2022/12/29 19:52:31;;;;;;;6.05;3.53;;;;;;;;;;5090239;28;20059;-44
2022/12/29 19:54:57;;;;;;;6.88;3.35;;;;;;;;;;5109477;28;20072;-45
2022/12/29 19:57:24;;;;;;;6.60;3.25;;;;;;;;;;5108271;28;20031;-45
2022/12/29 19:59:50;;;;;;;5.47;3.28;;;;;;;;;;5090179;28;20028;-44
2022/12/29 20:02:19;;;;;;;3.45;2.53;;;;;;;;;;5107795;28;20027;-45
2022/12/29 20:04:45;;;;;;;4.68;2.45;;;;;;;;;;5108080;28;20038;-44
2022/12/29 20:07:11;;;;;;;4.93;3.55;;;;;;;;;;5106890;28;20027;-46
2022/12/29 20:09:38;;;;;;;5.13;3.08;;;;;;;;;;5105730;28;20027;-49
2022/12/29 20:12:04;;;;;;;5.07;2.90;;;;;;;;;;5101646;28;20068;-46
2022/12/29 20:14:30;;;;;;;4.50;2.60;;;;;;;;;;5067291;28;20463;-46
2022/12/29 20:16:56;;;;;;;2.33;1.58;;;;;;;;;;5086725;28;20659;-45
2022/12/29 20:19:22;;;;;;;3.03;1.90;;;;;;;;;;5086125;28;20020;-45
2022/12/29 20:21:48;;;;;;;3.63;1.90;;;;;;;;;;5087730;28;20357;-48
2022/12/29 20:24:15;;;;;;;2.13;1.60;;;;;;;;;;5086310;28;20102;-46
2022/12/29 20:26:41;;;;;;;2.15;1.55;;;;;;;;;;5086373;28;20042;-47
2022/12/29 20:29:07;;;;;;;2.10;1.60;;;;;;;;;;5087929;28;20349;-47
2022/12/29 20:31:34;;;;;;;2.35;1.52;;;;;;;;;;5069163;28;20024;-46